createdAt,value
2022-12-14T00:01:45.044Z,13.85
2022-12-14T00:04:16.239Z,15.95
2022-12-14T00:06:43.092Z,14.20
2022-12-14T00:09:09.941Z,16.10
2022-12-14T00:11:36.788Z,15.38
2022-12-14T00:14:04.661Z,15.63
2022-12-14T00:16:34.376Z,15.55
2022-12-14T00:19:02.783Z,15.90
2022-12-14T00:21:29.756Z,14.82
2022-12-14T00:23:58.854Z,14.57
2022-12-14T00:26:28.895Z,15.25
2022-12-14T00:28:57.897Z,14.82
2022-12-14T00:31:25.574Z,16.65
2022-12-14T00:33:53.062Z,16.85
2022-12-14T00:36:20.442Z,17.52
2022-12-14T00:38:47.449Z,17.25
2022-12-14T00:41:14.427Z,18.50
2022-12-14T00:43:41.529Z,20.20
2022-12-14T00:46:08.656Z,18.90
2022-12-14T00:48:36.150Z,18.15
2022-12-14T00:51:03.554Z,20.27
2022-12-14T00:53:30.663Z,18.40
2022-12-14T00:55:57.772Z,16.52
2022-12-14T00:58:25.782Z,18.15
2022-12-14T01:01:07.934Z,17.20
2022-12-14T01:03:35.193Z,18.20
2022-12-14T01:06:02.654Z,17.67
2022-12-14T01:08:35.995Z,15.52
2022-12-14T01:11:07.820Z,17.75
2022-12-14T01:13:35.860Z,17.25
2022-12-14T01:16:08.943Z,17.42
2022-12-14T01:18:37.732Z,18.52
2022-12-14T01:21:13.602Z,18.42
2022-12-14T01:23:40.709Z,16.58
2022-12-14T01:26:07.609Z,18.35
2022-12-14T01:28:35.534Z,16.50
2022-12-14T01:31:10.518Z,20.00
2022-12-14T01:33:37.665Z,16.50
2022-12-14T01:36:10.310Z,17.23
2022-12-14T01:38:37.669Z,17.17
2022-12-14T01:41:05.979Z,17.50
2022-12-14T01:43:52.498Z,17.17
2022-12-14T01:46:38.741Z,15.43
2022-12-14T01:49:28.727Z,17.50
2022-12-14T01:52:11.693Z,15.77
2022-12-14T01:54:48.955Z,16.17
2022-12-14T01:57:19.365Z,16.52
2022-12-14T01:59:48.446Z,15.63
2022-12-14T02:02:18.023Z,16.70
2022-12-14T02:04:54.331Z,15.85
2022-12-14T02:07:23.041Z,17.63
2022-12-14T02:09:52.433Z,16.00
2022-12-14T02:12:35.056Z,16.38
2022-12-14T02:15:03.264Z,15.98
2022-12-14T02:17:30.271Z,16.67
2022-12-14T02:19:58.524Z,17.23
2022-12-14T02:22:52.742Z,16.60
2022-12-14T02:26:03.854Z,15.43
2022-12-14T02:29:07.666Z,15.07
2022-12-14T02:31:57.728Z,15.30
2022-12-14T02:34:24.571Z,14.68
2022-12-14T02:37:07.282Z,14.98
2022-12-14T02:39:52.720Z,16.98
2022-12-14T02:42:38.083Z,17.15
2022-12-14T02:45:43.235Z,17.35
2022-12-14T02:48:20.146Z,19.73
2022-12-14T02:51:26.022Z,21.15
2022-12-14T02:54:01.067Z,21.13
2022-12-14T02:56:44.566Z,19.98
2022-12-14T02:59:12.310Z,20.67
2022-12-14T03:01:41.965Z,19.73
2022-12-14T03:04:14.681Z,19.60
2022-12-14T03:07:02.756Z,18.90
2022-12-14T03:09:32.747Z,19.35
2022-12-14T03:12:10.226Z,19.42
2022-12-14T03:14:45.127Z,20.83
2022-12-14T03:17:19.970Z,20.63
2022-12-14T03:20:12.660Z,22.83
2022-12-14T03:22:51.110Z,21.40
2022-12-14T03:25:26.985Z,21.85
2022-12-14T03:28:03.164Z,20.55
2022-12-14T03:30:58.938Z,21.88
2022-12-14T03:33:22.639Z,21.65
2022-12-14T03:36:02.529Z,20.88
2022-12-14T03:38:32.754Z,21.58
2022-12-14T03:41:13.370Z,21.75
2022-12-14T03:43:58.260Z,20.75
2022-12-14T03:47:10.075Z,21.27
2022-12-14T03:50:09.231Z,21.40
2022-12-14T03:52:42.906Z,21.50
2022-12-14T03:55:31.016Z,22.45
2022-12-14T03:58:04.067Z,21.95
2022-12-14T04:00:37.516Z,23.67
2022-12-14T04:03:29.933Z,23.65
2022-12-14T04:06:09.203Z,21.23
2022-12-14T04:09:15.764Z,23.90
2022-12-14T04:12:11.770Z,21.40
2022-12-14T04:15:04.996Z,20.45
2022-12-14T04:18:11.365Z,21.98
2022-12-14T04:20:48.333Z,21.75
2022-12-14T04:23:40.681Z,22.67
2022-12-14T04:26:13.888Z,18.88
2022-12-14T04:29:19.562Z,20.73
2022-12-14T04:31:53.773Z,20.20
2022-12-14T04:34:24.568Z,18.83
2022-12-14T04:36:56.146Z,20.80
2022-12-14T04:39:36.009Z,19.05
2022-12-14T04:42:06.808Z,18.77
2022-12-14T04:44:40.391Z,18.38
2022-12-14T04:47:10.485Z,18.42
2022-12-14T04:49:45.430Z,16.77
2022-12-14T04:52:40.454Z,18.10
2022-12-14T04:55:38.798Z,17.67
2022-12-14T04:58:14.848Z,18.17
2022-12-14T05:01:16.711Z,19.63
2022-12-14T05:04:01.103Z,18.50
2022-12-14T05:07:00.053Z,19.17
2022-12-14T05:09:34.808Z,17.08
2022-12-14T05:12:20.300Z,16.80
2022-12-14T05:14:59.246Z,19.02
2022-12-14T05:17:27.244Z,18.73
2022-12-14T05:19:54.526Z,18.33
2022-12-14T05:22:21.724Z,17.88
2022-12-14T05:24:48.861Z,17.23
2022-12-14T05:27:15.997Z,19.13
2022-12-14T05:29:43.187Z,18.75
2022-12-14T05:32:13.087Z,18.95
2022-12-14T05:34:40.566Z,18.63
2022-12-14T05:37:09.567Z,18.17
2022-12-14T05:39:40.075Z,16.88
2022-12-14T05:42:07.001Z,16.75
2022-12-14T05:44:33.841Z,15.27
2022-12-14T05:47:00.976Z,17.00
2022-12-14T05:49:27.874Z,16.98
2022-12-14T05:51:54.816Z,16.92
2022-12-14T05:54:21.780Z,17.15
2022-12-14T05:56:48.720Z,16.48
2022-12-14T05:59:17.374Z,17.17
2022-12-14T06:01:45.648Z,16.27
2022-12-14T06:04:17.448Z,17.27
2022-12-14T06:06:44.700Z,17.25
2022-12-14T06:09:15.851Z,16.38
2022-12-14T06:11:44.216Z,17.55
2022-12-14T06:14:12.152Z,15.80
2022-12-14T06:16:44.713Z,16.90
2022-12-14T06:19:12.946Z,17.60
2022-12-14T06:21:41.766Z,18.27
2022-12-14T06:24:10.963Z,16.17
2022-12-14T06:26:41.795Z,16.42
2022-12-14T06:29:19.500Z,16.98
2022-12-14T06:31:49.228Z,17.30
2022-12-14T06:34:17.350Z,16.77
2022-12-14T06:36:44.433Z,17.17
2022-12-14T06:39:14.151Z,20.25
2022-12-14T06:41:41.402Z,18.92
2022-12-14T06:44:12.019Z,19.45
2022-12-14T06:46:41.037Z,23.15
2022-12-14T06:49:08.408Z,24.48
2022-12-14T06:51:42.086Z,23.15
2022-12-14T06:54:11.437Z,22.23
2022-12-14T06:56:39.201Z,23.13
2022-12-14T06:59:06.398Z,20.75
2022-12-14T07:01:33.508Z,20.83
2022-12-14T07:04:00.618Z,19.27
2022-12-14T07:06:33.208Z,19.77
2022-12-14T07:09:00.794Z,18.95
2022-12-14T07:11:29.570Z,19.60
2022-12-14T07:13:57.333Z,19.90
2022-12-14T07:16:26.219Z,17.77
2022-12-14T07:18:54.338Z,20.30
2022-12-14T07:21:23.004Z,18.90
2022-12-14T07:23:52.533Z,19.73
2022-12-14T07:26:23.885Z,18.88
2022-12-14T07:28:51.399Z,19.48
2022-12-14T07:31:21.631Z,21.77
2022-12-14T07:33:49.700Z,20.40
2022-12-14T07:36:19.516Z,20.55
2022-12-14T07:38:48.904Z,25.52
2022-12-14T07:41:22.643Z,28.60
2022-12-14T07:43:51.559Z,27.35
2022-12-14T07:46:21.585Z,28.60
2022-12-14T07:48:50.896Z,28.65
2022-12-14T07:51:20.965Z,26.67
2022-12-14T07:53:48.511Z,24.85
2022-12-14T07:56:18.984Z,24.38
2022-12-14T07:58:45.984Z,21.95
2022-12-14T08:01:14.680Z,21.92
2022-12-14T08:03:55.685Z,21.52
2022-12-14T08:06:24.505Z,20.98
2022-12-14T08:08:53.080Z,19.55
2022-12-14T08:11:22.433Z,18.05
2022-12-14T08:14:21.909Z,19.23
2022-12-14T08:16:50.377Z,19.95
2022-12-14T08:19:19.271Z,19.88
2022-12-14T08:21:46.266Z,19.75
2022-12-14T08:24:14.409Z,19.45
2022-12-14T08:26:41.326Z,21.33
2022-12-14T08:29:08.397Z,20.70
2022-12-14T08:31:35.382Z,20.63
2022-12-14T08:34:02.839Z,20.83
2022-12-14T08:36:33.298Z,21.17
2022-12-14T08:39:09.664Z,21.30
2022-12-14T08:41:36.696Z,21.23
2022-12-14T08:44:04.739Z,20.02
2022-12-14T08:46:34.819Z,22.08
2022-12-14T08:49:01.947Z,20.83
2022-12-14T08:51:29.731Z,21.23
2022-12-14T08:53:57.200Z,22.52
2022-12-14T08:56:27.013Z,21.48
2022-12-14T08:58:54.692Z,23.17
2022-12-14T09:01:33.305Z,21.75
2022-12-14T09:04:06.742Z,22.08
2022-12-14T09:06:36.062Z,20.88
2022-12-14T09:09:04.409Z,21.88
2022-12-14T09:11:31.282Z,22.35
2022-12-14T09:13:58.349Z,21.95
2022-12-14T09:16:28.878Z,21.75
2022-12-14T09:18:56.463Z,20.45
2022-12-14T09:21:24.166Z,22.10
2022-12-14T09:23:57.286Z,22.63
2022-12-14T09:26:26.617Z,21.98
2022-12-14T09:28:55.543Z,22.65
2022-12-14T09:31:24.536Z,22.70
2022-12-14T09:33:51.955Z,22.30
2022-12-14T09:36:24.386Z,21.60
2022-12-14T09:38:56.058Z,21.15
2022-12-14T09:42:01.032Z,21.77
2022-12-14T09:44:37.187Z,22.35
2022-12-14T09:47:26.986Z,21.52
2022-12-14T09:50:02.640Z,21.65
2022-12-14T09:52:59.064Z,21.35
2022-12-14T09:55:33.024Z,22.27
2022-12-14T09:58:16.767Z,26.55
2022-12-14T10:00:53.282Z,26.63
2022-12-14T10:03:36.594Z,25.00
2022-12-14T10:06:32.026Z,25.35
2022-12-14T10:09:17.671Z,22.85
2022-12-14T10:14:51.677Z,22.45
2022-12-14T10:17:38.303Z,22.58
2022-12-14T10:20:18.599Z,21.63
2022-12-14T10:22:49.877Z,22.02
2022-12-14T10:25:22.877Z,18.75
2022-12-14T10:28:10.783Z,16.63
2022-12-14T10:30:42.281Z,16.83
2022-12-14T10:33:29.564Z,12.85
2022-12-14T10:36:18.142Z,16.08
2022-12-14T10:39:07.660Z,13.90
2022-12-14T10:41:43.845Z,11.45
2022-12-14T10:44:50.206Z,13.43
2022-12-14T10:47:26.610Z,7.25
2022-12-14T10:50:15.961Z,8.90
2022-12-14T10:52:45.487Z,4.97
2022-12-14T10:55:24.843Z,4.72
2022-12-14T10:57:51.733Z,4.97
2022-12-14T11:00:23.459Z,2.88
2022-12-14T11:02:54.953Z,3.53
2022-12-14T11:05:37.097Z,3.22
2022-12-14T11:08:08.335Z,2.45
2022-12-14T11:10:39.658Z,2.58
2022-12-14T11:13:17.473Z,2.42
2022-12-14T11:15:49.810Z,2.97
2022-12-14T11:18:16.807Z,2.13
2022-12-14T11:20:54.158Z,1.73
2022-12-14T11:23:26.035Z,2.70
2022-12-14T11:25:59.502Z,2.92
2022-12-14T11:28:58.783Z,2.55
2022-12-14T11:31:38.134Z,2.03
2022-12-14T11:34:22.549Z,2.55
2022-12-14T11:36:50.236Z,2.88
2022-12-14T11:39:25.421Z,3.40
2022-12-14T11:42:02.496Z,2.13
2022-12-14T11:44:33.707Z,2.80
2022-12-14T11:47:00.693Z,3.28
2022-12-14T11:49:39.731Z,3.00
2022-12-14T11:52:18.427Z,2.90
2022-12-14T11:54:50.134Z,2.80
2022-12-14T11:57:30.094Z,2.70
2022-12-14T12:00:01.403Z,2.53
2022-12-14T12:02:33.516Z,3.05
2022-12-14T12:05:10.847Z,2.78
2022-12-14T12:07:40.633Z,3.00
2022-12-14T12:10:18.760Z,2.20
2022-12-14T12:13:09.062Z,3.10
2022-12-14T12:15:43.418Z,4.30
2022-12-14T12:18:27.458Z,2.30
2022-12-14T12:21:18.868Z,2.72
2022-12-14T12:24:15.134Z,2.80
2022-12-14T12:29:30.054Z,2.33
2022-12-14T12:31:58.909Z,3.65
2022-12-14T12:34:43.960Z,3.33
2022-12-14T12:37:28.260Z,3.08
2022-12-14T12:40:04.960Z,2.97
2022-12-14T12:42:45.997Z,2.85
2022-12-14T12:45:27.795Z,3.35
2022-12-14T12:48:19.633Z,4.10
2022-12-14T12:50:51.399Z,3.10
2022-12-14T12:53:28.443Z,3.92
2022-12-14T12:56:10.111Z,3.47
2022-12-14T12:58:39.384Z,3.10
2022-12-14T13:01:34.644Z,3.15
2022-12-14T13:04:10.444Z,2.20
2022-12-14T13:06:48.903Z,1.90
2022-12-14T13:09:45.200Z,1.55
2022-12-14T13:14:50.429Z,2.63
2022-12-14T13:17:43.718Z,2.08
2022-12-14T13:20:27.465Z,2.63
2022-12-14T13:22:55.208Z,2.13
2022-12-14T13:25:27.346Z,3.35
2022-12-14T13:27:59.829Z,2.90
2022-12-14T13:30:29.767Z,3.05
2022-12-14T13:33:25.419Z,2.80
2022-12-14T13:36:20.091Z,2.75
2022-12-14T13:39:24.377Z,3.00
2022-12-14T13:42:23.700Z,3.42
2022-12-14T13:45:00.580Z,3.65
2022-12-14T13:47:55.475Z,4.13
2022-12-14T13:50:37.075Z,3.25
2022-12-14T13:53:25.078Z,3.25
2022-12-14T13:55:55.773Z,3.08
2022-12-14T13:58:44.742Z,3.25
2022-12-14T14:01:14.782Z,3.78
2022-12-14T14:03:46.834Z,3.28
2022-12-14T14:06:36.005Z,2.95
2022-12-14T14:09:30.457Z,3.15
2022-12-14T14:12:34.161Z,2.92
2022-12-14T14:15:30.759Z,2.90
2022-12-14T14:18:07.032Z,3.10
2022-12-14T14:20:41.241Z,3.42
2022-12-14T14:23:14.310Z,3.00
2022-12-14T14:25:41.448Z,3.45
2022-12-14T14:28:15.240Z,3.22
2022-12-14T14:30:58.668Z,3.05
2022-12-14T14:33:54.913Z,3.40
2022-12-14T14:36:36.977Z,3.95
2022-12-14T14:39:31.224Z,3.53
2022-12-14T14:41:54.804Z,3.40
2022-12-14T14:45:08.245Z,3.10
2022-12-14T14:47:40.427Z,3.50
2022-12-14T14:50:30.311Z,3.95
2022-12-14T14:53:01.072Z,4.10
2022-12-14T14:55:53.378Z,3.83
2022-12-14T14:58:22.497Z,4.38
2022-12-14T15:01:02.769Z,4.72
2022-12-14T15:03:43.526Z,3.65
2022-12-14T15:06:21.474Z,4.10
2022-12-14T15:08:57.237Z,4.13
2022-12-14T15:11:26.869Z,3.25
2022-12-14T15:14:00.578Z,3.50
2022-12-14T15:16:32.399Z,3.42
2022-12-14T15:19:33.514Z,3.35
2022-12-14T15:22:05.702Z,2.95
2022-12-14T15:24:41.468Z,2.78
2022-12-14T15:27:25.648Z,2.92
2022-12-14T15:29:53.118Z,2.35
2022-12-14T15:32:22.844Z,3.10
2022-12-14T15:35:02.611Z,3.63
2022-12-14T15:37:41.903Z,4.80
2022-12-14T15:40:16.729Z,3.92
2022-12-14T15:42:53.887Z,4.55
2022-12-14T15:45:27.756Z,5.20
2022-12-14T15:47:55.111Z,4.63
2022-12-14T15:50:32.401Z,3.75
2022-12-14T15:53:24.948Z,3.50
2022-12-14T15:56:00.227Z,3.47
2022-12-14T15:58:35.004Z,3.60
2022-12-14T16:01:11.671Z,3.95
2022-12-14T16:03:43.442Z,3.65
2022-12-14T16:06:12.457Z,3.38
2022-12-14T16:08:51.892Z,3.13
2022-12-14T16:11:35.249Z,3.88
2022-12-14T16:14:07.700Z,3.78
2022-12-14T16:16:35.117Z,3.38
2022-12-14T16:19:25.830Z,3.50
2022-12-14T16:22:09.303Z,3.13
2022-12-14T16:24:38.674Z,3.08
2022-12-14T16:27:05.727Z,3.33
2022-12-14T16:29:34.400Z,3.97
2022-12-14T16:32:15.619Z,3.30
2022-12-14T16:34:48.186Z,3.50
2022-12-14T16:37:33.995Z,3.17
2022-12-14T16:40:01.792Z,3.17
2022-12-14T16:42:32.330Z,3.15
2022-12-14T16:44:59.504Z,2.35
2022-12-14T16:47:29.241Z,2.75
2022-12-14T16:49:59.913Z,2.90
2022-12-14T16:52:31.392Z,3.80
2022-12-14T16:55:15.092Z,3.47
2022-12-14T16:57:48.026Z,3.30
2022-12-14T17:00:30.659Z,3.08
2022-12-14T17:03:08.113Z,3.15
2022-12-14T17:05:39.819Z,3.83
2022-12-14T17:08:07.925Z,3.08
2022-12-14T17:10:35.843Z,3.28
2022-12-14T17:13:04.024Z,3.38
2022-12-14T17:15:34.552Z,3.03
2022-12-14T17:18:04.747Z,3.13
2022-12-14T17:20:39.367Z,3.55
2022-12-14T17:23:12.396Z,3.42
2022-12-14T17:25:44.605Z,3.38
2022-12-14T17:28:27.295Z,3.05
2022-12-14T17:30:57.787Z,2.60
2022-12-14T17:33:26.760Z,3.17
2022-12-14T17:35:55.770Z,2.83
2022-12-14T17:38:23.312Z,3.03
2022-12-14T17:40:51.876Z,3.20
2022-12-14T17:43:22.413Z,3.22
2022-12-14T17:45:49.717Z,2.75
2022-12-14T17:48:17.834Z,3.10
2022-12-14T17:50:47.995Z,2.50
2022-12-14T17:53:17.022Z,2.85
2022-12-14T17:55:44.589Z,2.50
2022-12-14T17:58:11.538Z,3.25
2022-12-14T18:00:57.571Z,2.60
2022-12-14T18:03:24.951Z,1.90
2022-12-14T18:05:52.620Z,3.30
2022-12-14T18:08:21.053Z,2.67
2022-12-14T18:10:53.964Z,2.90
2022-12-14T18:13:21.381Z,1.75
2022-12-14T18:15:54.053Z,2.63
2022-12-14T18:18:24.158Z,2.40
2022-12-14T18:20:54.034Z,2.45
2022-12-14T18:23:22.525Z,2.05
2022-12-14T18:25:55.088Z,1.67
2022-12-14T18:28:22.509Z,2.50
2022-12-14T18:31:09.024Z,2.38
2022-12-14T18:33:36.147Z,2.10
2022-12-14T18:36:03.199Z,2.22
2022-12-14T18:38:30.165Z,2.03
2022-12-14T18:40:58.898Z,1.60
2022-12-14T18:43:28.178Z,2.30
2022-12-14T18:45:56.582Z,2.75
2022-12-14T18:48:24.442Z,3.20
2022-12-14T18:50:53.245Z,4.93
2022-12-14T18:53:22.769Z,3.88
2022-12-14T18:55:50.388Z,3.00
2022-12-14T18:58:22.829Z,2.60
2022-12-14T19:00:52.038Z,2.30
2022-12-14T19:03:19.712Z,2.40
2022-12-14T19:05:47.560Z,2.40
2022-12-14T19:08:14.532Z,2.63
2022-12-14T19:10:44.476Z,2.50
2022-12-14T19:13:23.270Z,3.20
2022-12-14T19:15:52.572Z,3.00
2022-12-14T19:18:19.699Z,4.25
2022-12-14T19:20:49.599Z,3.33
2022-12-14T19:23:18.896Z,2.58
2022-12-14T19:25:46.639Z,2.30
2022-12-14T19:31:01.888Z,1.92
2022-12-14T19:33:30.151Z,2.67
2022-12-14T19:35:57.521Z,2.05
2022-12-14T19:38:24.555Z,2.08
2022-12-14T19:41:06.472Z,2.67
2022-12-14T19:43:34.515Z,2.00
2022-12-14T19:46:09.688Z,1.48
2022-12-14T19:48:38.269Z,1.83
2022-12-14T19:51:13.324Z,2.17
2022-12-14T19:53:42.744Z,1.80
2022-12-14T19:56:10.696Z,1.45
2022-12-14T19:58:37.573Z,2.00
2022-12-14T20:01:08.930Z,2.22
2022-12-14T20:03:37.532Z,1.60
2022-12-14T20:06:05.696Z,2.75
2022-12-14T20:08:33.571Z,2.13
2022-12-14T20:11:05.894Z,2.13
2022-12-14T20:13:33.421Z,1.83
2022-12-14T20:16:02.139Z,2.30
2022-12-14T20:18:30.518Z,1.98
2022-12-14T20:21:08.947Z,2.65
2022-12-14T20:23:37.843Z,2.08
2022-12-14T20:26:10.935Z,2.53
2022-12-14T20:28:37.890Z,2.33
2022-12-14T20:31:06.764Z,3.85
2022-12-14T20:33:34.675Z,2.38
2022-12-14T20:36:02.053Z,2.28
2022-12-14T20:38:29.063Z,1.85
2022-12-14T20:40:56.163Z,1.48
2022-12-14T20:43:23.523Z,2.70
2022-12-14T20:45:50.419Z,1.73
2022-12-14T20:48:17.262Z,2.22
2022-12-14T20:50:44.526Z,2.22
2022-12-14T20:53:18.117Z,2.13
2022-12-14T20:55:45.077Z,3.35
2022-12-14T20:58:12.068Z,1.75
2022-12-14T21:00:39.026Z,2.47
2022-12-14T21:03:06.166Z,3.40
2022-12-14T21:05:33.175Z,3.03
2022-12-14T21:08:00.091Z,2.50
2022-12-14T21:10:27.045Z,1.88
2022-12-14T21:12:53.971Z,2.10
2022-12-14T21:15:20.905Z,2.58
2022-12-14T21:17:47.812Z,2.30
2022-12-14T21:20:14.781Z,2.30
2022-12-14T21:22:41.728Z,2.20
2022-12-14T21:25:09.075Z,1.73
2022-12-14T21:27:38.823Z,2.00
2022-12-14T21:30:08.772Z,2.13
2022-12-14T21:32:38.519Z,1.92
2022-12-14T21:35:06.428Z,1.85
2022-12-14T21:37:33.392Z,2.28
2022-12-14T21:40:03.277Z,3.28
2022-12-14T21:42:30.218Z,2.10
2022-12-14T21:44:57.823Z,2.63
2022-12-14T21:47:27.463Z,1.73
2022-12-14T21:49:55.255Z,2.55
2022-12-14T21:52:25.140Z,1.80
2022-12-14T21:54:52.088Z,1.90
2022-12-14T21:57:40.245Z,1.70
2022-12-14T22:00:08.785Z,1.77
2022-12-14T22:02:42.408Z,1.53
2022-12-14T22:05:10.726Z,2.17
2022-12-14T22:07:37.891Z,1.48
2022-12-14T22:10:05.335Z,2.45
2022-12-14T22:12:32.285Z,2.25
2022-12-14T22:14:59.212Z,1.80
2022-12-14T22:17:26.187Z,2.60
2022-12-14T22:19:55.256Z,1.38
2022-12-14T22:22:22.688Z,2.30
2022-12-14T22:24:51.250Z,2.28
2022-12-14T22:27:18.722Z,1.88
2022-12-14T22:29:45.695Z,1.95
2022-12-14T22:32:13.060Z,1.45
2022-12-14T22:34:40.084Z,2.10
2022-12-14T22:37:07.094Z,1.80
2022-12-14T22:39:34.123Z,2.00
2022-12-14T22:42:01.065Z,2.30
2022-12-14T22:44:27.985Z,2.70
2022-12-14T22:46:55.072Z,1.40
2022-12-14T22:49:21.944Z,1.45
2022-12-14T22:51:48.870Z,1.73
2022-12-14T22:54:21.063Z,1.50
2022-12-14T22:56:53.809Z,2.47
2022-12-14T22:59:34.078Z,1.50
2022-12-14T23:02:01.142Z,2.08
2022-12-14T23:04:28.321Z,1.88
2022-12-14T23:06:55.666Z,1.52
2022-12-14T23:09:41.156Z,2.85
2022-12-14T23:12:26.479Z,2.58
2022-12-14T23:15:12.130Z,1.50
2022-12-14T23:17:57.709Z,1.70
2022-12-14T23:20:43.346Z,1.92
2022-12-14T23:23:29.344Z,2.28
2022-12-14T23:26:15.056Z,2.40
2022-12-14T23:29:00.501Z,2.38
2022-12-14T23:31:46.100Z,1.70
2022-12-14T23:34:31.781Z,2.33
2022-12-14T23:37:20.495Z,1.95
2022-12-14T23:40:06.526Z,2.20
2022-12-14T23:42:52.056Z,2.05
2022-12-14T23:45:37.607Z,2.53
2022-12-14T23:48:23.290Z,3.08
2022-12-14T23:51:08.873Z,2.35
2022-12-14T23:53:54.192Z,4.97
2022-12-14T23:56:39.914Z,2.38
